Time;durP1;ratioP1;P1;durP2;ratioP2;P2;SDS_P1;SDS_P2;PMS_P1;PMS_P2;Temp;Humidity;BMP_temperature;BMP_pressure;BME280_temperature;BME280_humidity;BME280_pressure;Samples;Min_cycle;Max_cycle;Signal;HPM_P1;HPM_P2
2024/01/11 00:00:24;;;;;;;41.17;15.03;;;-9.60;97.40;;;;;;5010495;28;20520;-48
2024/01/11 00:02:49;;;;;;;21.30;10.10;;;-9.60;97.60;;;;;;5009324;28;20026;-48
2024/01/11 00:05:15;;;;;;;26.07;8.70;;;-9.50;97.60;;;;;;5015096;28;20025;-50
2024/01/11 00:07:40;;;;;;;24.43;10.70;;;-9.50;98.00;;;;;;5013183;28;20448;-49
2024/01/11 00:10:06;;;;;;;22.80;9.30;;;-9.50;98.40;;;;;;5014869;28;20025;-50
2024/01/11 00:12:32;;;;;;;16.63;8.87;;;-9.40;98.40;;;;;;5015572;28;20029;-49
2024/01/11 00:14:58;;;;;;;21.37;8.87;;;-9.40;98.40;;;;;;5012854;28;20066;-47
2024/01/11 00:17:25;;;;;;;20.03;9.50;;;-9.30;98.60;;;;;;5014036;28;20033;-49
2024/01/11 00:19:50;;;;;;;18.50;8.47;;;-9.30;98.80;;;;;;5005083;28;20672;-49
2024/01/11 00:22:16;;;;;;;11.40;6.50;;;-9.30;98.80;;;;;;5021356;28;20056;-45
2024/01/11 00:24:41;;;;;;;16.93;6.93;;;-9.30;98.90;;;;;;5012862;28;20037;-45
2024/01/11 00:27:07;;;;;;;14.17;6.60;;;-9.20;99.10;;;;;;5015332;28;20076;-49
2024/01/11 00:29:33;;;;;;;15.80;6.83;;;-9.20;99.40;;;;;;5014481;28;20516;-47
2024/01/11 00:31:59;;;;;;;17.50;7.20;;;-9.20;99.50;;;;;;5012800;28;20034;-48
2024/01/11 00:34:24;;;;;;;19.90;8.03;;;-9.10;99.70;;;;;;5015159;28;20484;-46
2024/01/11 00:36:50;;;;;;;14.67;7.03;;;-9.00;99.90;;;;;;5010805;28;20037;-47
2024/01/11 00:39:15;;;;;;;13.97;6.03;;;-8.90;99.90;;;;;;5014740;28;20109;-48
2024/01/11 00:41:41;;;;;;;14.53;7.07;;;-8.70;99.90;;;;;;5010647;28;20053;-52
2024/01/11 00:44:07;;;;;;;14.97;6.63;;;-8.70;99.90;;;;;;5016457;28;20048;-60
2024/01/11 00:46:33;;;;;;;16.37;7.37;;;-8.60;99.90;;;;;;5012145;28;20029;-58
2024/01/11 00:48:58;;;;;;;15.67;6.13;;;-8.60;99.90;;;;;;5018105;28;20366;-59
2024/01/11 00:51:24;;;;;;;15.97;6.53;;;-8.50;99.90;;;;;;5016451;28;20029;-59
2024/01/11 00:53:49;;;;;;;25.57;10.00;;;-8.40;99.90;;;;;;5014042;28;20175;-59
2024/01/11 00:56:16;;;;;;;22.80;8.30;;;-8.30;99.90;;;;;;5014915;28;20089;-58
2024/01/11 00:58:42;;;;;;;22.30;8.80;;;-8.20;99.90;;;;;;5013841;28;20049;-59
2024/01/11 01:01:09;;;;;;;26.47;9.23;;;-8.20;99.90;;;;;;5009085;28;20136;-59
2024/01/11 01:03:35;;;;;;;16.03;7.50;;;-8.10;99.90;;;;;;5015816;28;20026;-58
2024/01/11 01:06:01;;;;;;;21.67;9.03;;;-8.00;99.90;;;;;;5014065;28;20083;-59
2024/01/11 01:08:27;;;;;;;16.27;7.70;;;-7.90;99.90;;;;;;5012743;28;20030;-59
2024/01/11 01:10:52;;;;;;;18.87;7.73;;;-7.90;99.90;;;;;;5010950;28;20037;-59
2024/01/11 01:13:18;;;;;;;20.73;8.23;;;-7.80;99.90;;;;;;5011093;28;20038;-59
2024/01/11 01:15:43;;;;;;;27.00;11.23;;;-7.80;99.90;;;;;;5011658;28;20058;-59
2024/01/11 01:18:09;;;;;;;31.07;8.63;;;-7.70;99.90;;;;;;5017988;28;20037;-59
2024/01/11 01:20:34;;;;;;;19.17;7.77;;;-7.60;99.90;;;;;;5011489;28;20037;-60
2024/01/11 01:22:59;;;;;;;19.27;8.43;;;-7.60;99.90;;;;;;5012939;28;20117;-58
2024/01/11 01:25:25;;;;;;;46.90;11.27;;;-7.60;99.90;;;;;;5013185;28;20026;-60
2024/01/11 01:27:51;;;;;;;18.03;7.47;;;-7.50;99.90;;;;;;5011520;28;20026;-59
2024/01/11 01:30:16;;;;;;;31.17;8.37;;;-7.50;99.90;;;;;;5015478;28;20045;-59
2024/01/11 01:32:42;;;;;;;24.67;7.73;;;-7.40;99.90;;;;;;5016745;28;20098;-60
2024/01/11 01:35:07;;;;;;;17.07;6.77;;;-7.40;99.90;;;;;;5011363;28;20576;-60
2024/01/11 01:37:33;;;;;;;17.90;6.75;;;-7.30;99.90;;;;;;5013006;28;20036;-60
2024/01/11 01:39:58;;;;;;;16.40;5.68;;;-7.20;99.90;;;;;;5012604;28;20045;-59
2024/01/11 01:42:24;;;;;;;16.17;6.85;;;-7.20;99.90;;;;;;5014294;28;20083;-59
2024/01/11 01:44:49;;;;;;;27.87;9.43;;;-7.10;99.90;;;;;;5018267;28;20029;-60
2024/01/11 01:47:17;;;;;;;17.67;6.40;;;-7.00;99.90;;;;;;5012070;28;20407;-58
2024/01/11 01:49:44;;;;;;;13.77;5.93;;;-7.00;99.90;;;;;;5019871;28;20662;-59
2024/01/11 01:52:14;;;;;;;12.27;5.13;;;-6.90;99.90;;;;;;5011813;28;20021;-59
2024/01/11 01:54:39;;;;;;;15.98;6.22;;;-6.90;99.90;;;;;;5019144;28;20512;-59
2024/01/11 01:57:07;;;;;;;14.73;6.28;;;-6.80;99.90;;;;;;5019553;28;20068;-59
2024/01/11 01:59:33;;;;;;;15.07;5.80;;;-6.80;99.90;;;;;;5019355;28;20087;-59
2024/01/11 02:01:59;;;;;;;12.98;5.07;;;-6.70;99.90;;;;;;5013399;28;20025;-61
2024/01/11 02:04:25;;;;;;;11.85;4.72;;;-6.70;99.90;;;;;;5018045;28;20025;-59
2024/01/11 02:06:53;;;;;;;11.77;5.13;;;-6.60;99.90;;;;;;5018213;28;20086;-59
2024/01/11 02:09:18;;;;;;;11.23;4.75;;;-6.50;99.90;;;;;;5017916;28;20025;-60
2024/01/11 02:11:45;;;;;;;8.15;3.72;;;-6.50;99.90;;;;;;5019281;28;20021;-59
2024/01/11 02:14:11;;;;;;;5.93;3.13;;;-6.40;99.90;;;;;;5019352;28;20053;-60
2024/01/11 02:16:37;;;;;;;10.70;4.38;;;-6.40;99.90;;;;;;5011063;28;20033;-60
2024/01/11 02:19:05;;;;;;;9.30;3.45;;;-6.30;99.90;;;;;;5019280;28;20108;-59
2024/01/11 02:21:33;;;;;;;10.18;4.30;;;-6.20;99.90;;;;;;5017879;28;20034;-59
2024/01/11 02:24:07;;;;;;;8.48;3.58;;;-6.10;99.90;;;;;;5010723;28;20029;-59
2024/01/11 02:26:33;;;;;;;10.05;3.60;;;-6.00;99.90;;;;;;5017247;28;20035;-59
2024/01/11 02:28:58;;;;;;;7.10;2.58;;;-5.90;99.90;;;;;;5015179;28;20040;-59
2024/01/11 02:31:24;;;;;;;6.50;3.05;;;-5.90;99.90;;;;;;5020128;28;20489;-59
2024/01/11 02:33:54;;;;;;;8.60;3.45;;;-5.80;99.90;;;;;;5015237;28;20018;-59
2024/01/11 02:36:20;;;;;;;8.10;3.42;;;-5.80;99.90;;;;;;5013157;28;20025;-59
2024/01/11 02:38:47;;;;;;;9.07;3.40;;;-5.70;99.90;;;;;;5014820;28;20033;-59
2024/01/11 02:41:15;;;;;;;7.70;3.28;;;-5.60;99.90;;;;;;5018780;28;20087;-58
2024/01/11 02:43:46;;;;;;;6.35;2.78;;;-5.60;99.90;;;;;;5021396;28;20079;-59
2024/01/11 02:46:11;;;;;;;12.73;4.25;;;-5.50;99.90;;;;;;5023026;28;20013;-60
2024/01/11 02:48:37;;;;;;;11.40;4.25;;;-5.50;99.90;;;;;;5022341;28;20516;-59
2024/01/11 02:51:02;;;;;;;10.77;4.22;;;-5.40;99.90;;;;;;5020985;28;20076;-58
2024/01/11 02:53:28;;;;;;;11.68;4.25;;;-5.40;99.90;;;;;;5020994;28;20037;-59
2024/01/11 02:55:53;;;;;;;10.77;4.63;;;-5.30;99.90;;;;;;5022169;28;20386;-59
2024/01/11 02:58:19;;;;;;;14.35;5.22;;;-5.30;99.90;;;;;;5022426;28;20569;-59
2024/01/11 03:00:44;;;;;;;16.38;5.70;;;-5.30;99.90;;;;;;5014158;28;20113;-59
2024/01/11 03:03:10;;;;;;;12.88;4.18;;;-5.30;99.90;;;;;;5017337;28;20034;-59
2024/01/11 03:05:35;;;;;;;14.20;4.13;;;-5.20;99.90;;;;;;5013623;28;20037;-58
2024/01/11 03:08:01;;;;;;;15.45;4.93;;;-5.20;99.90;;;;;;5019877;28;20448;-60
2024/01/11 03:10:26;;;;;;;10.23;4.45;;;-5.20;99.90;;;;;;5014474;28;20030;-59
2024/01/11 03:12:52;;;;;;;12.07;4.57;;;-5.10;99.90;;;;;;5022259;28;20029;-60
2024/01/11 03:15:17;;;;;;;15.43;5.85;;;-5.10;99.90;;;;;;5021858;28;20065;-59
2024/01/11 03:17:43;;;;;;;12.57;4.72;;;-5.10;99.90;;;;;;5021862;28;20052;-59
2024/01/11 03:20:09;;;;;;;17.15;5.30;;;-5.10;99.90;;;;;;5020684;28;20032;-59
2024/01/11 03:22:34;;;;;;;11.27;4.45;;;-5.10;99.90;;;;;;5022307;28;20465;-59
2024/01/11 03:25:00;;;;;;;12.80;5.05;;;-5.10;99.90;;;;;;5019995;28;20060;-59
2024/01/11 03:27:25;;;;;;;17.15;5.53;;;-5.00;99.90;;;;;;5021772;28;20393;-59
2024/01/11 03:29:51;;;;;;;14.38;5.90;;;-5.00;99.90;;;;;;5022158;28;20101;-59
2024/01/11 03:32:16;;;;;;;12.68;4.75;;;-5.00;99.90;;;;;;5021931;28;20124;-58
2024/01/11 03:34:42;;;;;;;19.55;6.63;;;-5.00;99.90;;;;;;5021596;28;20033;-58
2024/01/11 03:37:07;;;;;;;12.75;4.53;;;-4.90;99.90;;;;;;5023702;28;20029;-60
2024/01/11 03:39:34;;;;;;;12.55;5.88;;;-4.90;99.90;;;;;;5021494;28;20033;-60
2024/01/11 03:41:59;;;;;;;14.35;4.68;;;-4.80;99.90;;;;;;5021546;28;20043;-59
2024/01/11 03:44:25;;;;;;;16.02;5.30;;;-4.80;99.90;;;;;;5012886;28;20116;-60
2024/01/11 03:46:51;;;;;;;10.50;4.50;;;-4.80;99.90;;;;;;5013409;28;20032;-59
2024/01/11 03:49:16;;;;;;;10.80;5.25;;;-4.80;99.90;;;;;;5017600;28;20481;-59
2024/01/11 03:51:42;;;;;;;15.68;5.03;;;-4.70;99.90;;;;;;5015841;28;20032;-60
2024/01/11 03:54:07;;;;;;;10.10;4.15;;;-4.70;99.90;;;;;;5020591;28;20103;-60
2024/01/11 03:56:33;;;;;;;15.13;4.30;;;-4.60;99.90;;;;;;5012338;28;20072;-59
2024/01/11 03:58:58;;;;;;;8.98;3.95;;;-4.60;99.90;;;;;;5013954;28;20052;-60
2024/01/11 04:01:24;;;;;;;13.45;4.25;;;-4.60;99.90;;;;;;5006582;28;20056;-61
2024/01/11 04:03:50;;;;;;;8.32;3.08;;;-4.50;99.90;;;;;;5015605;28;20060;-59
2024/01/11 04:06:23;;;;;;;10.90;3.90;;;-4.50;99.90;;;;;;5013990;28;20025;-58
2024/01/11 04:08:49;;;;;;;16.15;6.40;;;-4.40;99.90;;;;;;5013039;28;20041;-59
2024/01/11 04:11:15;;;;;;;10.82;4.03;;;-4.40;99.90;;;;;;5017174;28;20567;-59
2024/01/11 04:13:40;;;;;;;9.38;4.10;;;-4.40;99.90;;;;;;5019093;28;20045;-59
2024/01/11 04:16:06;;;;;;;10.05;4.13;;;-4.40;99.90;;;;;;5014163;28;20397;-60
2024/01/11 04:18:32;;;;;;;15.25;4.60;;;-4.30;99.90;;;;;;5020244;28;20048;-59
2024/01/11 04:20:58;;;;;;;11.77;4.32;;;-4.30;99.90;;;;;;5012664;28;20026;-59
2024/01/11 04:23:24;;;;;;;11.27;3.42;;;-4.30;99.90;;;;;;5016254;28;20086;-60
2024/01/11 04:25:51;;;;;;;12.75;4.00;;;-4.30;99.90;;;;;;5013751;28;20512;-59
2024/01/11 04:28:17;;;;;;;12.57;3.95;;;-4.20;99.90;;;;;;5014629;28;20489;-60
2024/01/11 04:30:42;;;;;;;11.73;3.97;;;-4.20;99.90;;;;;;5013674;28;20087;-59
2024/01/11 04:33:08;;;;;;;14.20;4.00;;;-4.20;99.90;;;;;;5015770;28;20076;-59
2024/01/11 04:35:33;;;;;;;10.23;4.35;;;-4.10;99.90;;;;;;5010754;28;20049;-59
2024/01/11 04:37:59;;;;;;;15.73;5.85;;;-4.10;99.90;;;;;;5015009;28;20109;-59
2024/01/11 04:40:24;;;;;;;12.27;5.22;;;-4.10;99.90;;;;;;5014558;28;20073;-59
2024/01/11 04:42:49;;;;;;;13.80;5.10;;;-4.10;99.90;;;;;;5016559;28;20186;-59
2024/01/11 04:45:15;;;;;;;18.02;5.88;;;-4.00;99.90;;;;;;5012506;28;20049;-59
2024/01/11 04:47:41;;;;;;;11.65;4.10;;;-4.00;99.90;;;;;;5014190;28;20420;-59
2024/01/11 04:50:07;;;;;;;12.55;4.85;;;-4.00;99.90;;;;;;5015029;28;20033;-59
2024/01/11 04:52:32;;;;;;;14.00;4.85;;;-4.00;99.90;;;;;;5011448;28;20037;-58
2024/01/11 04:54:58;;;;;;;14.63;4.55;;;-4.00;99.90;;;;;;5014234;28;20097;-59
2024/01/11 04:57:23;;;;;;;14.07;4.60;;;-4.00;99.90;;;;;;5016188;28;20072;-59
2024/01/11 04:59:49;;;;;;;16.80;4.65;;;-4.00;99.90;;;;;;5005486;28;20042;-59
2024/01/11 05:02:14;;;;;;;20.45;5.72;;;-4.00;99.90;;;;;;5011000;28;20132;-59
2024/01/11 05:04:40;;;;;;;14.38;5.25;;;-4.00;99.90;;;;;;5015159;28;20036;-59
2024/01/11 05:07:05;;;;;;;28.08;8.75;;;-3.90;99.90;;;;;;5015166;28;20048;-59
2024/01/11 05:09:31;;;;;;;13.73;6.10;;;-3.90;99.90;;;;;;5005813;28;20077;-59
2024/01/11 05:11:56;;;;;;;17.17;5.65;;;-4.00;99.90;;;;;;5012427;28;20116;-59
2024/01/11 05:14:22;;;;;;;15.18;5.60;;;-4.00;99.90;;;;;;5016867;28;20111;-59
2024/01/11 05:16:47;;;;;;;20.88;5.75;;;-4.00;99.90;;;;;;5018762;28;20030;-59
2024/01/11 05:19:13;;;;;;;23.98;7.15;;;-4.00;99.90;;;;;;5020096;28;20108;-59
2024/01/11 05:21:38;;;;;;;20.13;5.65;;;-3.90;99.90;;;;;;5019930;28;20464;-59
2024/01/11 05:24:04;;;;;;;21.85;6.78;;;-3.90;99.90;;;;;;5020180;28;20062;-59
2024/01/11 05:26:29;;;;;;;19.77;7.53;;;-3.90;99.90;;;;;;5021370;28;20497;-59
2024/01/11 05:28:55;;;;;;;23.52;6.95;;;-3.90;99.90;;;;;;5018051;28;20025;-59
2024/01/11 05:31:20;;;;;;;30.45;7.53;;;-3.90;99.90;;;;;;5019242;28;20032;-60
2024/01/11 05:33:46;;;;;;;28.80;8.20;;;-3.90;99.90;;;;;;5014644;28;20022;-59
2024/01/11 05:36:11;;;;;;;30.48;9.05;;;-3.90;99.90;;;;;;5019613;28;20398;-59
2024/01/11 05:38:38;;;;;;;26.73;7.53;;;-3.90;99.90;;;;;;5019526;28;20033;-59
2024/01/11 05:41:04;;;;;;;21.98;7.35;;;-3.80;99.90;;;;;;5021661;28;20021;-60
2024/01/11 05:43:29;;;;;;;19.55;7.00;;;-3.80;99.90;;;;;;5019883;28;20030;-60
2024/01/11 05:45:55;;;;;;;26.27;8.02;;;-3.80;99.90;;;;;;5019448;28;20069;-60
2024/01/11 05:48:21;;;;;;;20.48;7.93;;;-3.80;99.90;;;;;;5014151;28;20573;-60
2024/01/11 05:50:46;;;;;;;30.40;9.68;;;-3.80;99.90;;;;;;5013782;28;20053;-60
2024/01/11 05:53:12;;;;;;;23.75;7.75;;;-3.80;99.90;;;;;;5012602;28;20025;-60
2024/01/11 05:55:38;;;;;;;22.15;7.65;;;-3.70;99.90;;;;;;5013748;28;20030;-60
2024/01/11 05:58:04;;;;;;;27.42;8.45;;;-3.70;99.90;;;;;;5014986;28;20052;-60
2024/01/11 06:00:30;;;;;;;28.88;8.10;;;-3.70;99.90;;;;;;5019615;28;20931;-60
2024/01/11 06:02:55;;;;;;;31.77;9.85;;;-3.70;99.90;;;;;;5008244;28;20065;-59
2024/01/11 06:05:21;;;;;;;32.30;9.13;;;-3.70;99.90;;;;;;5013660;28;20022;-60
2024/01/11 06:07:47;;;;;;;33.97;8.52;;;-3.70;99.90;;;;;;5012892;28;20033;-60
2024/01/11 06:10:13;;;;;;;25.88;8.45;;;-3.70;99.90;;;;;;5014707;28;20393;-59
2024/01/11 06:12:39;;;;;;;29.58;9.02;;;-3.60;99.90;;;;;;5008437;28;20033;-60
2024/01/11 06:15:05;;;;;;;29.38;9.32;;;-3.60;99.90;;;;;;5013783;28;20362;-60
2024/01/11 06:17:31;;;;;;;31.08;8.98;;;-3.60;99.90;;;;;;5016072;28;20723;-60
2024/01/11 06:19:56;;;;;;;26.63;9.05;;;-3.50;99.90;;;;;;5023090;28;20033;-60
2024/01/11 06:22:22;;;;;;;29.58;8.27;;;-3.50;99.90;;;;;;5022836;28;20026;-59
2024/01/11 06:24:47;;;;;;;25.30;8.23;;;-3.50;99.90;;;;;;5022934;28;20038;-59
2024/01/11 06:27:13;;;;;;;34.17;7.35;;;-3.50;99.90;;;;;;5024831;28;20095;-59
2024/01/11 06:29:38;;;;;;;29.95;8.93;;;-3.50;99.90;;;;;;5022718;28;20063;-60
2024/01/11 06:32:04;;;;;;;27.98;7.78;;;-3.50;99.90;;;;;;5022848;28;20468;-60
2024/01/11 06:34:30;;;;;;;23.00;6.97;;;-3.50;99.90;;;;;;5022981;28;20075;-60
2024/01/11 06:36:56;;;;;;;25.55;8.80;;;-3.40;99.90;;;;;;5022572;28;20026;-59
2024/01/11 06:39:21;;;;;;;32.20;9.80;;;-3.40;99.90;;;;;;5022707;28;20037;-59
2024/01/11 06:41:47;;;;;;;24.98;7.45;;;-3.40;99.90;;;;;;5023292;28;20048;-60
2024/01/11 06:44:12;;;;;;;29.15;7.88;;;-3.40;99.90;;;;;;5022624;28;20047;-53
2024/01/11 06:46:41;;;;;;;34.55;9.20;;;-3.30;99.90;;;;;;5022779;28;20292;-51
2024/01/11 06:49:07;;;;;;;32.63;10.65;;;-3.30;99.90;;;;;;5018251;28;20025;-50
2024/01/11 06:51:33;;;;;;;25.17;8.25;;;-3.30;99.90;;;;;;5022476;28;20061;-53
2024/01/11 06:54:00;;;;;;;32.85;9.45;;;-3.30;99.90;;;;;;5014297;28;20057;-50
2024/01/11 06:56:26;;;;;;;33.38;11.13;;;-3.20;99.90;;;;;;5022120;28;20040;-51
2024/01/11 06:58:52;;;;;;;31.92;8.93;;;-3.20;99.90;;;;;;5023748;28;20041;-49
2024/01/11 07:01:17;;;;;;;36.38;11.40;;;-3.20;99.90;;;;;;5017013;28;20092;-53
2024/01/11 07:03:43;;;;;;;39.13;11.20;;;-3.20;99.90;;;;;;5018080;28;20453;-52
2024/01/11 07:06:09;;;;;;;38.95;10.73;;;-3.20;99.90;;;;;;5018214;28;20041;-54
2024/01/11 07:08:35;;;;;;;38.97;10.30;;;-3.10;99.90;;;;;;5013354;28;20113;-53
2024/01/11 07:11:02;;;;;;;37.55;12.13;;;-3.10;99.90;;;;;;5014636;28;20105;-51
2024/01/11 07:13:28;;;;;;;41.80;9.70;;;-3.10;99.90;;;;;;5016109;28;20502;-54
2024/01/11 07:15:55;;;;;;;39.13;11.45;;;-3.10;99.90;;;;;;5014038;28;20078;-53
2024/01/11 07:18:21;;;;;;;30.42;9.93;;;-3.10;99.90;;;;;;5014996;28;20041;-54
2024/01/11 07:20:47;;;;;;;34.60;10.70;;;-3.00;99.90;;;;;;5016956;28;20034;-52
2024/01/11 07:23:13;;;;;;;38.63;10.98;;;-3.00;99.90;;;;;;5015994;28;20021;-52
2024/01/11 07:25:39;;;;;;;28.80;10.40;;;-3.00;99.90;;;;;;5010804;28;20111;-51
2024/01/11 07:28:05;;;;;;;41.65;10.55;;;-2.90;99.90;;;;;;5018988;28;20026;-52
2024/01/11 07:30:30;;;;;;;32.45;9.25;;;-2.90;99.90;;;;;;5022466;28;20441;-51
2024/01/11 07:32:56;;;;;;;34.45;9.90;;;-2.90;99.90;;;;;;5018735;28;20057;-51
2024/01/11 07:35:21;;;;;;;31.35;9.77;;;-2.90;99.90;;;;;;5017558;28;20029;-51
2024/01/11 07:37:47;;;;;;;34.60;10.43;;;-2.80;99.90;;;;;;5013594;28;20101;-54
2024/01/11 07:40:13;;;;;;;32.33;10.85;;;-2.80;99.90;;;;;;5014226;28;20472;-53
2024/01/11 07:42:39;;;;;;;33.75;11.00;;;-2.80;99.90;;;;;;5017483;28;20033;-54
2024/01/11 07:45:06;;;;;;;30.50;9.85;;;-2.70;99.90;;;;;;5014658;28;20083;-55
2024/01/11 07:47:32;;;;;;;34.40;9.82;;;-2.70;99.90;;;;;;5014529;28;20038;-53
2024/01/11 07:49:57;;;;;;;29.20;9.50;;;-2.70;99.90;;;;;;5016245;28;20033;-53
2024/01/11 07:52:23;;;;;;;28.67;9.70;;;-2.60;99.90;;;;;;5013206;28;20030;-54
2024/01/11 07:54:48;;;;;;;36.58;11.57;;;-2.50;99.90;;;;;;5016240;28;20401;-52
2024/01/11 07:57:14;;;;;;;34.38;12.68;;;-2.50;99.90;;;;;;5014006;28;20122;-53
2024/01/11 07:59:39;;;;;;;37.05;11.40;;;-2.40;99.90;;;;;;5015131;28;20029;-54
2024/01/11 08:02:06;;;;;;;32.05;10.93;;;-2.40;99.90;;;;;;5018389;28;20037;-50
2024/01/11 08:04:32;;;;;;;40.17;11.80;;;-2.40;99.90;;;;;;5017665;28;20401;-53
2024/01/11 08:07:01;;;;;;;38.92;10.80;;;-2.30;99.90;;;;;;5016444;28;20033;-54
2024/01/11 08:09:27;;;;;;;32.33;10.20;;;-2.30;99.90;;;;;;5013862;28;20103;-55
2024/01/11 08:11:54;;;;;;;35.45;12.10;;;-2.30;99.90;;;;;;5014596;28;20493;-54
2024/01/11 08:14:22;;;;;;;41.45;11.07;;;-2.20;99.90;;;;;;5012896;28;20048;-52
2024/01/11 08:16:48;;;;;;;29.02;9.65;;;-2.20;99.90;;;;;;5020684;28;20025;-54
2024/01/11 08:19:14;;;;;;;34.80;10.73;;;-2.20;99.90;;;;;;5015005;28;20025;-52
2024/01/11 08:21:41;;;;;;;30.23;11.02;;;-2.10;99.90;;;;;;5017477;28;20496;-54
2024/01/11 08:24:07;;;;;;;36.20;11.02;;;-2.10;99.90;;;;;;5020076;28;20546;-54
2024/01/11 08:26:32;;;;;;;33.65;11.15;;;-2.10;99.90;;;;;;5015119;28;20120;-52
2024/01/11 08:28:57;;;;;;;26.42;9.02;;;-2.10;99.90;;;;;;5014193;28;20029;-50
2024/01/11 08:31:23;;;;;;;33.53;11.15;;;-2.00;99.90;;;;;;5011340;28;20177;-50
2024/01/11 08:33:49;;;;;;;30.88;10.13;;;-2.00;99.90;;;;;;5018563;28;20028;-54
2024/01/11 08:36:15;;;;;;;35.38;11.82;;;-1.90;99.90;;;;;;5014370;28;20033;-54
2024/01/11 08:38:41;;;;;;;30.85;10.98;;;-1.90;99.90;;;;;;5014077;28;20397;-52
2024/01/11 08:41:06;;;;;;;31.10;11.73;;;-1.90;99.90;;;;;;5016866;28;20082;-52
2024/01/11 08:43:32;;;;;;;31.98;10.00;;;-1.80;99.90;;;;;;5018932;28;20037;-52
2024/01/11 08:45:58;;;;;;;38.55;11.77;;;-1.80;99.90;;;;;;5013218;28;20560;-51
2024/01/11 08:48:24;;;;;;;37.97;11.05;;;-1.80;99.90;;;;;;5014208;28;20035;-54
2024/01/11 08:50:49;;;;;;;30.60;10.40;;;-1.70;99.90;;;;;;5016225;28;20038;-53
2024/01/11 08:53:15;;;;;;;33.28;11.43;;;-1.70;99.90;;;;;;5010795;28;20528;-52
2024/01/11 08:55:41;;;;;;;36.08;11.65;;;-1.70;99.90;;;;;;5014136;28;20057;-54
2024/01/11 08:58:07;;;;;;;37.17;11.75;;;-1.60;99.90;;;;;;5014247;28;20042;-55
2024/01/11 09:00:32;;;;;;;30.48;10.57;;;-1.50;99.90;;;;;;5015914;28;20087;-53
2024/01/11 09:02:58;;;;;;;36.33;12.77;;;-1.40;99.90;;;;;;5008962;28;20110;-51
2024/01/11 09:05:23;;;;;;;27.05;10.70;;;-1.40;99.90;;;;;;5015798;28;20096;-50
2024/01/11 09:07:49;;;;;;;27.63;9.93;;;-1.30;99.90;;;;;;5011855;28;20049;-52
2024/01/11 09:10:14;;;;;;;32.35;11.20;;;-1.20;99.90;;;;;;5012708;28;20106;-52
2024/01/11 09:12:40;;;;;;;32.88;10.98;;;-1.20;99.90;;;;;;5013974;28;20037;-54
2024/01/11 09:15:06;;;;;;;26.92;9.68;;;-1.10;99.90;;;;;;5011786;28;20065;-54
2024/01/11 09:17:32;;;;;;;33.00;10.80;;;-1.10;99.90;;;;;;5015556;28;20057;-52
2024/01/11 09:19:57;;;;;;;28.92;10.27;;;-1.00;99.90;;;;;;5013271;28;20052;-54
2024/01/11 09:22:23;;;;;;;34.20;11.90;;;-1.00;99.90;;;;;;5010201;28;20057;-53
2024/01/11 09:24:49;;;;;;;31.95;11.10;;;-0.90;99.90;;;;;;5013838;28;20034;-52
2024/01/11 09:27:14;;;;;;;36.60;12.23;;;-0.90;99.90;;;;;;5017609;28;20085;-52
2024/01/11 09:29:46;;;;;;;31.23;12.02;;;-0.90;99.90;;;;;;5010109;28;20030;-53
2024/01/11 09:32:12;;;;;;;29.48;10.68;;;-0.80;99.90;;;;;;5014728;28;20064;-50
2024/01/11 09:34:38;;;;;;;31.88;11.70;;;-0.80;99.90;;;;;;5012572;28;20049;-54
2024/01/11 09:37:04;;;;;;;34.53;11.55;;;-0.80;99.90;;;;;;5011351;28;20068;-54
2024/01/11 09:39:30;;;;;;;32.45;11.23;;;-0.70;99.90;;;;;;5011289;28;20042;-51
2024/01/11 09:42:09;;;;;;;31.10;12.27;;;-0.70;99.90;;;;;;5013392;28;20104;-51
2024/01/11 09:44:38;;;;;;;26.88;12.02;;;-0.70;99.90;;;;;;5015405;28;20368;-53
2024/01/11 09:47:06;;;;;;;27.00;11.02;;;-0.70;99.90;;;;;;5011303;28;20063;-51
2024/01/11 09:49:33;;;;;;;36.92;13.23;;;-0.60;99.90;;;;;;5012292;28;20485;-53
2024/01/11 09:52:01;;;;;;;33.13;12.43;;;-0.60;99.90;;;;;;5008930;28;20037;-51
2024/01/11 09:54:27;;;;;;;30.52;12.10;;;-0.60;99.90;;;;;;5011197;28;20025;-54
2024/01/11 09:56:54;;;;;;;28.83;11.90;;;-0.50;99.90;;;;;;5009187;28;20099;-55
2024/01/11 09:59:23;;;;;;;28.67;11.20;;;-0.50;99.90;;;;;;5013517;28;20145;-52
2024/01/11 10:01:50;;;;;;;39.95;13.95;;;-0.50;99.90;;;;;;5006714;28;20033;-53
2024/01/11 10:04:16;;;;;;;31.85;12.50;;;-0.40;99.90;;;;;;5011971;28;20025;-54
2024/01/11 10:06:42;;;;;;;33.10;12.05;;;-0.50;99.90;;;;;;5013273;28;20593;-53
2024/01/11 10:09:08;;;;;;;29.67;11.75;;;-0.50;99.90;;;;;;5014806;28;20021;-53
2024/01/11 10:11:37;;;;;;;28.95;11.93;;;-0.50;99.90;;;;;;5012931;28;20057;-53
2024/01/11 10:14:05;;;;;;;29.77;11.70;;;-0.40;99.90;;;;;;5010788;28;20165;-51
2024/01/11 10:16:30;;;;;;;32.00;12.27;;;-0.40;99.90;;;;;;5012395;28;20044;-52
2024/01/11 10:18:57;;;;;;;26.35;11.55;;;-0.40;99.90;;;;;;5012228;28;20038;-54
2024/01/11 10:21:23;;;;;;;32.88;13.15;;;-0.50;99.90;;;;;;5010852;28;20026;-54
2024/01/11 10:23:50;;;;;;;28.20;10.90;;;-0.50;99.90;;;;;;5016991;28;20029;-52
2024/01/11 10:26:16;;;;;;;31.92;12.15;;;-0.50;99.90;;;;;;5012732;28;20021;-52
2024/01/11 10:28:45;;;;;;;34.67;12.35;;;-0.60;99.90;;;;;;5012076;28;20034;-54
2024/01/11 10:31:10;;;;;;;29.60;11.77;;;-0.50;99.90;;;;;;5018484;28;20029;-50
2024/01/11 10:33:36;;;;;;;30.55;12.02;;;-0.50;99.90;;;;;;5010029;28;20520;-51
2024/01/11 10:36:02;;;;;;;26.42;10.77;;;-0.60;99.90;;;;;;5014055;28;20097;-49
2024/01/11 10:38:35;;;;;;;28.67;11.68;;;-0.50;99.90;;;;;;5011726;28;20038;-51
2024/01/11 10:41:04;;;;;;;26.52;10.95;;;-0.50;99.90;;;;;;5010806;28;20034;-53
2024/01/11 10:43:31;;;;;;;29.75;12.32;;;-0.50;99.90;;;;;;5014113;28;20544;-54
2024/01/11 10:45:59;;;;;;;32.15;13.05;;;-0.40;99.90;;;;;;5011506;28;20087;-51
2024/01/11 10:48:25;;;;;;;28.23;12.00;;;-0.40;99.90;;;;;;5011092;28;20030;-53
2024/01/11 10:51:01;;;;;;;26.92;12.15;;;-0.30;99.90;;;;;;5005255;28;20048;-52
2024/01/11 10:53:43;;;;;;;30.25;11.70;;;-0.20;99.90;;;;;;5012686;28;20033;-52
2024/01/11 10:56:12;;;;;;;23.00;10.77;;;-0.20;99.90;;;;;;5008354;28;20097;-52
2024/01/11 10:58:40;;;;;;;23.63;10.38;;;-0.10;99.90;;;;;;5014283;28;20137;-51
2024/01/11 11:01:07;;;;;;;27.20;11.85;;;-0.10;99.90;;;;;;5009859;28;20022;-54
2024/01/11 11:03:35;;;;;;;25.00;10.80;;;-0.10;99.90;;;;;;5010691;28;20025;-50
2024/01/11 11:06:01;;;;;;;23.05;11.27;;;-0.10;99.90;;;;;;5018323;28;20044;-51
2024/01/11 11:08:29;;;;;;;24.90;12.50;;;-0.10;99.90;;;;;;5016275;28;20045;-54
2024/01/11 11:11:00;;;;;;;24.45;11.63;;;-0.10;99.90;;;;;;5018404;28;20494;-53
2024/01/11 11:13:26;;;;;;;23.90;11.18;;;-0.10;99.90;;;;;;5014332;28;20030;-51
2024/01/11 11:15:53;;;;;;;19.50;10.10;;;-0.10;99.90;;;;;;5019592;28;20354;-52
2024/01/11 11:18:19;;;;;;;24.70;10.13;;;-0.20;99.90;;;;;;5016486;28;20040;-50
2024/01/11 11:20:45;;;;;;;19.40;8.98;;;-0.20;99.90;;;;;;5014092;28;20574;-54
2024/01/11 11:23:14;;;;;;;21.83;10.07;;;-0.10;99.90;;;;;;5015991;28;20036;-53
2024/01/11 11:25:44;;;;;;;21.75;10.20;;;-0.10;99.90;;;;;;5015189;28;20141;-52
2024/01/11 11:28:12;;;;;;;25.30;10.07;;;-0.10;99.90;;;;;;5018304;28;20509;-50
2024/01/11 11:30:38;;;;;;;23.88;10.18;;;-0.10;99.90;;;;;;5010553;28;20034;-50
2024/01/11 11:33:23;;;;;;;25.13;10.48;;;-0.10;99.90;;;;;;5017744;28;20025;-53
2024/01/11 11:35:56;;;;;;;21.40;10.02;;;0.00;99.90;;;;;;5011492;28;20029;-48
2024/01/11 11:38:23;;;;;;;28.25;12.07;;;-0.10;99.90;;;;;;5015914;28;20033;-55
2024/01/11 11:40:52;;;;;;;22.17;10.05;;;0.00;99.90;;;;;;5015424;28;20021;-53
2024/01/11 11:43:18;;;;;;;25.98;12.48;;;0.00;99.90;;;;;;5013516;28;20026;-54
2024/01/11 11:45:46;;;;;;;27.05;11.70;;;0.00;99.90;;;;;;5017176;28;20091;-52
2024/01/11 11:48:34;;;;;;;23.77;10.65;;;0.10;99.90;;;;;;5014390;28;20086;-52
2024/01/11 11:51:07;;;;;;;25.45;11.52;;;0.10;99.90;;;;;;5011904;28;20026;-52
2024/01/11 11:53:34;;;;;;;25.92;11.70;;;0.20;99.90;;;;;;5015063;28;20029;-53
2024/01/11 11:56:01;;;;;;;27.40;12.02;;;0.20;99.90;;;;;;5020157;28;20061;-53
2024/01/11 11:58:30;;;;;;;32.58;15.00;;;0.30;99.90;;;;;;5016894;28;20049;-54
2024/01/11 12:00:58;;;;;;;26.13;11.10;;;0.30;99.90;;;;;;5015432;28;20029;-53
2024/01/11 12:03:32;;;;;;;29.88;11.93;;;0.30;99.90;;;;;;5012903;28;20032;-54
2024/01/11 12:05:58;;;;;;;25.15;10.70;;;0.30;99.90;;;;;;5011270;28;20021;-53
2024/01/11 12:08:24;;;;;;;25.52;11.48;;;0.30;99.90;;;;;;5014375;28;20055;-49
2024/01/11 12:10:51;;;;;;;22.00;10.27;;;0.40;99.90;;;;;;5015047;28;20021;-52
2024/01/11 12:13:17;;;;;;;22.98;10.27;;;0.40;99.90;;;;;;5015077;28;20032;-53
2024/01/11 12:15:42;;;;;;;21.73;9.10;;;0.40;99.90;;;;;;5008549;28;20021;-52
2024/01/11 12:18:08;;;;;;;21.35;10.15;;;0.40;99.90;;;;;;5014465;28;20017;-50
2024/01/11 12:20:33;;;;;;;21.67;10.43;;;0.50;99.90;;;;;;5015469;28;20041;-49
2024/01/11 12:22:59;;;;;;;24.48;12.88;;;0.40;99.90;;;;;;5016920;28;20105;-51
2024/01/11 12:25:25;;;;;;;18.33;9.20;;;0.40;99.90;;;;;;5013775;28;20103;-54
2024/01/11 12:27:51;;;;;;;22.35;9.60;;;0.40;99.90;;;;;;5011222;28;20061;-54